PWSweather.com
Personal Weather Stations
Station Observations
ANTHEMNP
Anthem North Parkside, Anthem, AZ 85086

Anthem North ParksideAnthem, AZ 85086

Lat: 33.876464, Lon: -112.13861199999997

Elevation: 1930

Station Type: Davis Vantage Vue with Pro 2 console

http://www.azjerry.com/ANPW/wxindex.php

High Low Average
Temperature 107.6°F42.0°C 84.4°F29.1°C 96.9°F36.1°C
Dew Point 60.0°F15.6°C 39.0°F3.9°C 52.5°F11.4°C
Winds 5.2 mph 8.4 kmh Calm Calm 2.0 mph SSE3.2 kmh SSE
Wind Gusts 16.0 mph25.7 kmh -- 5.0 mph8.0 kmh
Humidity 33% 10% 23%
Pressure 29.92 in1013.2 mb 29.74 in1007.1 mb -
Precipitation 0.00 in0.0 mm - -
Hour Temp Dew Point Humidity Winds Wind Gusts Pressure Precip Precip Rate Daily Precip Total
12:00 AM 93.3°F34.1°C 49.0°F9.4°C 22% 0.1 mph SE0.2 kmh SE 1.0 mph1.6 kmh 29.80 in1009.1 mb 0.00 in0.0 mm 0.00 in0.0 mm 0.00 in0.0 mm
12:10 AM 92.8°F33.8°C 49.0°F9.4°C 22% 0.7 mph SE1.1 kmh SE 2.0 mph3.2 kmh 29.80 in1009.1 mb 0.00 in0.0 mm 0.00 in0.0 mm 0.00 in0.0 mm
12:20 AM 92.9°F33.8°C 49.0°F9.4°C 22% 1.3 mph SE2.1 kmh SE 2.0 mph3.2 kmh 29.80 in1009.1 mb 0.00 in0.0 mm 0.00 in0.0 mm 0.00 in0.0 mm
12:30 AM 91.9°F33.3°C 49.0°F9.4°C 23% Calm Calm -- 29.80 in1009.1 mb 0.00 in0.0 mm 0.00 in0.0 mm 0.00 in0.0 mm
12:40 AM 91.0°F32.8°C 48.0°F8.9°C 23% Calm Calm 2.0 mph3.2 kmh 29.80 in1009.1 mb 0.00 in0.0 mm 0.00 in0.0 mm 0.00 in0.0 mm
12:50 AM 90.8°F32.7°C 47.0°F8.3°C 22% 0.6 mph N1.0 kmh N 2.0 mph3.2 kmh 29.80 in1009.1 mb 0.00 in0.0 mm 0.00 in0.0 mm 0.00 in0.0 mm
01:00 AM 91.0°F32.8°C 47.0°F8.3°C 22% 0.3 mph NNE0.5 kmh NNE 1.0 mph1.6 kmh 29.80 in1009.1 mb 0.00 in0.0 mm 0.00 in0.0 mm 0.00 in0.0 mm
01:10 AM 89.8°F32.1°C 47.0°F8.3°C 23% 0.8 mph N1.3 kmh N 3.0 mph4.8 kmh 29.80 in1009.1 mb 0.00 in0.0 mm 0.00 in0.0 mm 0.00 in0.0 mm
01:20 AM 90.1°F32.3°C 46.0°F7.8°C 22% 1.4 mph N2.3 kmh N 4.0 mph6.4 kmh 29.81 in1009.5 mb 0.00 in0.0 mm 0.00 in0.0 mm 0.00 in0.0 mm
01:30 AM 90.2°F32.3°C 47.0°F8.3°C 22% 0.3 mph NE0.5 kmh NE 1.0 mph1.6 kmh 29.81 in1009.5 mb 0.00 in0.0 mm 0.00 in0.0 mm 0.00 in0.0 mm
01:40 AM 90.3°F32.4°C 47.0°F8.3°C 22% 0.1 mph NE0.2 kmh NE 1.0 mph1.6 kmh 29.81 in1009.5 mb 0.00 in0.0 mm 0.00 in0.0 mm 0.00 in0.0 mm
01:50 AM 89.7°F32.1°C 47.0°F8.3°C 23% Calm Calm 2.0 mph3.2 kmh 29.80 in1009.1 mb 0.00 in0.0 mm 0.00 in0.0 mm 0.00 in0.0 mm
02:00 AM 89.9°F32.2°C 47.0°F8.3°C 23% 0.7 mph N1.1 kmh N 3.0 mph4.8 kmh 29.81 in1009.5 mb 0.00 in0.0 mm 0.00 in0.0 mm 0.00 in0.0 mm
02:10 AM 89.7°F32.1°C 48.0°F8.9°C 24% Calm Calm 1.0 mph1.6 kmh 29.81 in1009.5 mb 0.00 in0.0 mm 0.00 in0.0 mm 0.00 in0.0 mm
02:20 AM 89.7°F32.1°C 48.0°F8.9°C 24% 0.2 mph N0.3 kmh N 2.0 mph3.2 kmh 29.81 in1009.5 mb 0.00 in0.0 mm 0.00 in0.0 mm 0.00 in0.0 mm
02:30 AM 90.1°F32.3°C 49.0°F9.4°C 24% 0.7 mph N1.1 kmh N 1.0 mph1.6 kmh 29.81 in1009.5 mb 0.00 in0.0 mm 0.00 in0.0 mm 0.00 in0.0 mm
02:40 AM 90.1°F32.3°C 49.0°F9.4°C 24% 0.2 mph N0.3 kmh N 1.0 mph1.6 kmh 29.81 in1009.5 mb 0.00 in0.0 mm 0.00 in0.0 mm 0.00 in0.0 mm
02:50 AM 89.5°F31.9°C 48.0°F8.9°C 24% Calm Calm -- 29.81 in1009.5 mb 0.00 in0.0 mm 0.00 in0.0 mm 0.00 in0.0 mm
03:00 AM 88.7°F31.5°C 49.0°F9.4°C 25% Calm Calm -- 29.81 in1009.5 mb 0.00 in0.0 mm 0.00 in0.0 mm 0.00 in0.0 mm
03:10 AM 87.9°F31.1°C 48.0°F8.9°C 25% Calm Calm -- 29.82 in1009.8 mb 0.00 in0.0 mm 0.00 in0.0 mm 0.00 in0.0 mm
03:20 AM 88.8°F31.6°C 48.0°F8.9°C 24% 1.1 mph NNE1.8 kmh NNE 7.0 mph11.3 kmh 29.82 in1009.8 mb 0.00 in0.0 mm 0.00 in0.0 mm 0.00 in0.0 mm
03:30 AM 89.2°F31.8°C 48.0°F8.9°C 24% 2.1 mph N3.4 kmh N 6.0 mph9.7 kmh 29.82 in1009.8 mb 0.00 in0.0 mm 0.00 in0.0 mm 0.00 in0.0 mm
03:40 AM 88.7°F31.5°C 48.0°F8.9°C 24% 2.2 mph NNE3.5 kmh NNE 4.0 mph6.4 kmh 29.81 in1009.5 mb 0.00 in0.0 mm 0.00 in0.0 mm 0.00 in0.0 mm
03:50 AM 88.5°F31.4°C 47.0°F8.3°C 24% 2.8 mph N4.5 kmh N 6.0 mph9.7 kmh 29.82 in1009.8 mb 0.00 in0.0 mm 0.00 in0.0 mm 0.00 in0.0 mm
04:00 AM 88.6°F31.4°C 47.0°F8.3°C 24% 3.2 mph NNE5.1 kmh NNE 8.0 mph12.9 kmh 29.82 in1009.8 mb 0.00 in0.0 mm 0.00 in0.0 mm 0.00 in0.0 mm
04:10 AM 88.2°F31.2°C 47.0°F8.3°C 24% 2.8 mph NNE4.5 kmh NNE 5.0 mph8.0 kmh 29.82 in1009.8 mb 0.00 in0.0 mm 0.00 in0.0 mm 0.00 in0.0 mm
04:20 AM 87.2°F30.7°C 47.0°F8.3°C 25% 0.3 mph NNE0.5 kmh NNE 2.0 mph3.2 kmh 29.83 in1010.2 mb 0.00 in0.0 mm 0.00 in0.0 mm 0.00 in0.0 mm
04:30 AM 86.4°F30.2°C 48.0°F8.9°C 26% Calm Calm 1.0 mph1.6 kmh 29.83 in1010.2 mb 0.00 in0.0 mm 0.00 in0.0 mm 0.00 in0.0 mm
04:40 AM 86.3°F30.2°C 48.0°F8.9°C 26% 0.2 mph NNE0.3 kmh NNE 2.0 mph3.2 kmh 29.83 in1010.2 mb 0.00 in0.0 mm 0.00 in0.0 mm 0.00 in0.0 mm
04:50 AM 86.1°F30.1°C 47.0°F8.3°C 26% Calm Calm 1.0 mph1.6 kmh 29.84 in1010.5 mb 0.00 in0.0 mm 0.00 in0.0 mm 0.00 in0.0 mm
05:00 AM 85.7°F29.8°C 47.0°F8.3°C 26% Calm Calm 1.0 mph1.6 kmh 29.84 in1010.5 mb 0.00 in0.0 mm 0.00 in0.0 mm 0.00 in0.0 mm
05:10 AM 85.9°F29.9°C 47.0°F8.3°C 26% 0.7 mph N1.1 kmh N 3.0 mph4.8 kmh 29.84 in1010.5 mb 0.00 in0.0 mm 0.00 in0.0 mm 0.00 in0.0 mm
05:20 AM 86.4°F30.2°C 48.0°F8.9°C 26% 1.9 mph N3.1 kmh N 5.0 mph8.0 kmh 29.84 in1010.5 mb 0.00 in0.0 mm 0.00 in0.0 mm 0.00 in0.0 mm
05:30 AM 86.3°F30.2°C 48.0°F8.9°C 26% 1.7 mph NNE2.7 kmh NNE 3.0 mph4.8 kmh 29.84 in1010.5 mb 0.00 in0.0 mm 0.00 in0.0 mm 0.00 in0.0 mm
05:40 AM 85.9°F29.9°C 47.0°F8.3°C 26% 1.2 mph N1.9 kmh N 3.0 mph4.8 kmh 29.85 in1010.8 mb 0.00 in0.0 mm 0.00 in0.0 mm 0.00 in0.0 mm
05:50 AM 85.3°F29.6°C 48.0°F8.9°C 27% 0.1 mph N0.2 kmh N 2.0 mph3.2 kmh 29.85 in1010.8 mb 0.00 in0.0 mm 0.00 in0.0 mm 0.00 in0.0 mm
06:00 AM 84.9°F29.4°C 47.0°F8.3°C 27% 0.5 mph N0.8 kmh N 2.0 mph3.2 kmh 29.86 in1011.2 mb 0.00 in0.0 mm 0.00 in0.0 mm 0.00 in0.0 mm
06:10 AM 84.5°F29.2°C 48.0°F8.9°C 28% Calm Calm -- 29.87 in1011.5 mb 0.00 in0.0 mm 0.00 in0.0 mm 0.00 in0.0 mm
06:20 AM 84.4°F29.1°C 48.0°F8.9°C 28% Calm Calm 1.0 mph1.6 kmh 29.87 in1011.5 mb 0.00 in0.0 mm 0.00 in0.0 mm 0.00 in0.0 mm
06:30 AM 84.4°F29.1°C 50.0°F10.0°C 30% Calm Calm 1.0 mph1.6 kmh 29.88 in1011.9 mb 0.00 in0.0 mm 0.00 in0.0 mm 0.00 in0.0 mm
06:40 AM 85.0°F29.4°C 49.0°F9.4°C 29% Calm Calm 1.0 mph1.6 kmh 29.88 in1011.9 mb 0.00 in0.0 mm 0.00 in0.0 mm 0.00 in0.0 mm
06:50 AM 85.9°F29.9°C 51.0°F10.6°C 30% 1.0 mph ESE1.6 kmh ESE 3.0 mph4.8 kmh 29.88 in1011.9 mb 0.00 in0.0 mm 0.00 in0.0 mm 0.00 in0.0 mm
07:00 AM 86.7°F30.4°C 53.0°F11.7°C 31% 1.0 mph SE1.6 kmh SE 3.0 mph4.8 kmh 29.89 in1012.2 mb 0.00 in0.0 mm 0.00 in0.0 mm 0.00 in0.0 mm
07:10 AM 87.9°F31.1°C 53.0°F11.7°C 30% 1.7 mph SSE2.7 kmh SSE 4.0 mph6.4 kmh 29.89 in1012.2 mb 0.00 in0.0 mm 0.00 in0.0 mm 0.00 in0.0 mm
07:20 AM 88.8°F31.6°C 54.0°F12.2°C 31% 1.5 mph SSE2.4 kmh SSE 4.0 mph6.4 kmh 29.90 in1012.5 mb 0.00 in0.0 mm 0.00 in0.0 mm 0.00 in0.0 mm
07:30 AM 89.3°F31.8°C 55.0°F12.8°C 31% 1.3 mph SW2.1 kmh SW 3.0 mph4.8 kmh 29.90 in1012.5 mb 0.00 in0.0 mm 0.00 in0.0 mm 0.00 in0.0 mm
07:40 AM 90.4°F32.4°C 57.0°F13.9°C 32% 1.0 mph SW1.6 kmh SW 4.0 mph6.4 kmh 29.90 in1012.5 mb 0.00 in0.0 mm 0.00 in0.0 mm 0.00 in0.0 mm
07:50 AM 90.6°F32.6°C 58.0°F14.4°C 33% 2.9 mph SW4.7 kmh SW 7.0 mph11.3 kmh 29.91 in1012.9 mb 0.00 in0.0 mm 0.00 in0.0 mm 0.00 in0.0 mm
08:00 AM 92.0°F33.3°C 59.0°F15.0°C 33% 1.2 mph SW1.9 kmh SW 6.0 mph9.7 kmh 29.91 in1012.9 mb 0.00 in0.0 mm 0.00 in0.0 mm 0.00 in0.0 mm
08:10 AM 93.4°F34.1°C 59.0°F15.0°C 31% 0.7 mph SW1.1 kmh SW 2.0 mph3.2 kmh 29.91 in1012.9 mb 0.00 in0.0 mm 0.00 in0.0 mm 0.00 in0.0 mm
08:20 AM 94.5°F34.7°C 59.0°F15.0°C 30% 0.6 mph ENE1.0 kmh ENE 3.0 mph4.8 kmh 29.92 in1013.2 mb 0.00 in0.0 mm 0.00 in0.0 mm 0.00 in0.0 mm
08:30 AM 94.9°F34.9°C 58.0°F14.4°C 29% 0.7 mph SSW1.1 kmh SSW 3.0 mph4.8 kmh 29.92 in1013.2 mb 0.00 in0.0 mm 0.00 in0.0 mm 0.00 in0.0 mm
08:40 AM 95.1°F35.1°C 58.0°F14.4°C 29% 0.3 mph SSW0.5 kmh SSW 2.0 mph3.2 kmh 29.91 in1012.9 mb 0.00 in0.0 mm 0.00 in0.0 mm 0.00 in0.0 mm
08:50 AM 96.3°F35.7°C 59.0°F15.0°C 29% 0.3 mph SW0.5 kmh SW 2.0 mph3.2 kmh 29.91 in1012.9 mb 0.00 in0.0 mm 0.00 in0.0 mm 0.00 in0.0 mm
09:00 AM 96.9°F36.1°C 59.0°F15.0°C 28% Calm Calm -- 29.91 in1012.9 mb 0.00 in0.0 mm 0.00 in0.0 mm 0.00 in0.0 mm
09:10 AM 96.5°F35.8°C 59.0°F15.0°C 29% 1.1 mph S1.8 kmh S 4.0 mph6.4 kmh 29.91 in1012.9 mb 0.00 in0.0 mm 0.00 in0.0 mm 0.00 in0.0 mm
09:20 AM 95.8°F35.4°C 60.0°F15.6°C 30% 1.4 mph N2.3 kmh N 6.0 mph9.7 kmh 29.91 in1012.9 mb 0.00 in0.0 mm 0.00 in0.0 mm 0.00 in0.0 mm
09:30 AM 95.9°F35.5°C 60.0°F15.6°C 30% 0.6 mph SSE1.0 kmh SSE 4.0 mph6.4 kmh 29.91 in1012.9 mb 0.00 in0.0 mm 0.00 in0.0 mm 0.00 in0.0 mm
09:40 AM 96.3°F35.7°C 60.0°F15.6°C 30% 1.2 mph SSE1.9 kmh SSE 4.0 mph6.4 kmh 29.91 in1012.9 mb 0.00 in0.0 mm 0.00 in0.0 mm 0.00 in0.0 mm
09:50 AM 96.6°F35.9°C 60.0°F15.6°C 29% 1.1 mph S1.8 kmh S 3.0 mph4.8 kmh 29.91 in1012.9 mb 0.00 in0.0 mm 0.00 in0.0 mm 0.00 in0.0 mm
10:00 AM 97.6°F36.4°C 58.0°F14.4°C 27% 1.1 mph SW1.8 kmh SW 4.0 mph6.4 kmh 29.91 in1012.9 mb 0.00 in0.0 mm 0.00 in0.0 mm 0.00 in0.0 mm
10:10 AM 98.0°F36.7°C 59.0°F15.0°C 27% 1.5 mph S2.4 kmh S 6.0 mph9.7 kmh 29.91 in1012.9 mb 0.00 in0.0 mm 0.00 in0.0 mm 0.00 in0.0 mm
10:20 AM 99.1°F37.3°C 58.0°F14.4°C 25% 0.8 mph ENE1.3 kmh ENE 2.0 mph3.2 kmh 29.91 in1012.9 mb 0.00 in0.0 mm 0.00 in0.0 mm 0.00 in0.0 mm
10:30 AM 97.4°F36.3°C 57.0°F13.9°C 26% 1.5 mph N2.4 kmh N 4.0 mph6.4 kmh 29.90 in1012.5 mb 0.00 in0.0 mm 0.00 in0.0 mm 0.00 in0.0 mm
10:40 AM 97.1°F36.2°C 59.0°F15.0°C 28% 1.9 mph NNE3.1 kmh NNE 6.0 mph9.7 kmh 29.90 in1012.5 mb 0.00 in0.0 mm 0.00 in0.0 mm 0.00 in0.0 mm
10:50 AM 98.8°F37.1°C 58.0°F14.4°C 26% 0.9 mph S1.4 kmh S 4.0 mph6.4 kmh 29.90 in1012.5 mb 0.00 in0.0 mm 0.00 in0.0 mm 0.00 in0.0 mm
11:00 AM 99.5°F37.5°C 58.0°F14.4°C 25% 2.6 mph SW4.2 kmh SW 7.0 mph11.3 kmh 29.90 in1012.5 mb 0.00 in0.0 mm 0.00 in0.0 mm 0.00 in0.0 mm
11:10 AM 100.5°F38.1°C 59.0°F15.0°C 25% 1.4 mph SE2.3 kmh SE 6.0 mph9.7 kmh 29.90 in1012.5 mb 0.00 in0.0 mm 0.00 in0.0 mm 0.00 in0.0 mm
11:20 AM 100.8°F38.2°C 58.0°F14.4°C 24% 1.7 mph S2.7 kmh S 6.0 mph9.7 kmh 29.89 in1012.2 mb 0.00 in0.0 mm 0.00 in0.0 mm 0.00 in0.0 mm
11:30 AM 101.0°F38.3°C 58.0°F14.4°C 24% 1.5 mph SW2.4 kmh SW 6.0 mph9.7 kmh 29.89 in1012.2 mb 0.00 in0.0 mm 0.00 in0.0 mm 0.00 in0.0 mm
11:40 AM 100.6°F38.1°C 58.0°F14.4°C 24% 2.1 mph WSW3.4 kmh WSW 8.0 mph12.9 kmh 29.89 in1012.2 mb 0.00 in0.0 mm 0.00 in0.0 mm 0.00 in0.0 mm
11:50 AM 99.6°F37.6°C 57.0°F13.9°C 24% 3.5 mph SW5.6 kmh SW 10.0 mph16.1 kmh 29.89 in1012.2 mb 0.00 in0.0 mm 0.00 in0.0 mm 0.00 in0.0 mm
12:00 PM 100.4°F38.0°C 56.0°F13.3°C 23% 1.8 mph SW2.9 kmh SW 6.0 mph9.7 kmh 29.89 in1012.2 mb 0.00 in0.0 mm 0.00 in0.0 mm 0.00 in0.0 mm
12:10 PM 101.4°F38.6°C 57.0°F13.9°C 23% 1.5 mph SSW2.4 kmh SSW 5.0 mph8.0 kmh 29.88 in1011.9 mb 0.00 in0.0 mm 0.00 in0.0 mm 0.00 in0.0 mm
12:20 PM 101.8°F38.8°C 56.0°F13.3°C 22% 2.4 mph SE3.9 kmh SE 7.0 mph11.3 kmh 29.88 in1011.9 mb 0.00 in0.0 mm 0.00 in0.0 mm 0.00 in0.0 mm
12:30 PM 102.8°F39.3°C 57.0°F13.9°C 22% 1.5 mph SW2.4 kmh SW 6.0 mph9.7 kmh 29.88 in1011.9 mb 0.00 in0.0 mm 0.00 in0.0 mm 0.00 in0.0 mm
12:40 PM 102.9°F39.4°C 57.0°F13.9°C 22% 1.5 mph S2.4 kmh S 5.0 mph8.0 kmh 29.87 in1011.5 mb 0.00 in0.0 mm 0.00 in0.0 mm 0.00 in0.0 mm
12:50 PM 102.7°F39.3°C 60.0°F15.6°C 24% 3.8 mph SW6.1 kmh SW 9.0 mph14.5 kmh 29.86 in1011.2 mb 0.00 in0.0 mm 0.00 in0.0 mm 0.00 in0.0 mm
01:00 PM 103.4°F39.7°C 59.0°F15.0°C 23% 1.9 mph NW3.1 kmh NW 9.0 mph14.5 kmh 29.86 in1011.2 mb 0.00 in0.0 mm 0.00 in0.0 mm 0.00 in0.0 mm
01:10 PM 103.9°F39.9°C 56.0°F13.3°C 20% 1.8 mph WSW2.9 kmh WSW 7.0 mph11.3 kmh 29.86 in1011.2 mb 0.00 in0.0 mm 0.00 in0.0 mm 0.00 in0.0 mm
01:20 PM 105.0°F40.6°C 57.0°F13.9°C 20% 0.5 mph SW0.8 kmh SW 3.0 mph4.8 kmh 29.86 in1011.2 mb 0.00 in0.0 mm 0.00 in0.0 mm 0.00 in0.0 mm
01:30 PM 105.0°F40.6°C 57.0°F13.9°C 20% 2.1 mph SSE3.4 kmh SSE 8.0 mph12.9 kmh 29.85 in1010.8 mb 0.00 in0.0 mm 0.00 in0.0 mm 0.00 in0.0 mm
01:40 PM 105.2°F40.7°C 55.0°F12.8°C 19% 1.6 mph NNE2.6 kmh NNE 5.0 mph8.0 kmh 29.85 in1010.8 mb 0.00 in0.0 mm 0.00 in0.0 mm 0.00 in0.0 mm
01:50 PM 104.6°F40.3°C 57.0°F13.9°C 21% 1.5 mph N2.4 kmh N 5.0 mph8.0 kmh 29.84 in1010.5 mb 0.00 in0.0 mm 0.00 in0.0 mm 0.00 in0.0 mm
02:00 PM 105.7°F40.9°C 58.0°F14.4°C 21% 1.5 mph WSW2.4 kmh WSW 5.0 mph8.0 kmh 29.84 in1010.5 mb 0.00 in0.0 mm 0.00 in0.0 mm 0.00 in0.0 mm
02:10 PM 106.7°F41.5°C 58.0°F14.4°C 20% 1.3 mph WSW2.1 kmh WSW 4.0 mph6.4 kmh 29.83 in1010.2 mb 0.00 in0.0 mm 0.00 in0.0 mm 0.00 in0.0 mm
02:20 PM 105.5°F40.8°C 58.0°F14.4°C 21% 3.3 mph SW5.3 kmh SW 10.0 mph16.1 kmh 29.82 in1009.8 mb 0.00 in0.0 mm 0.00 in0.0 mm 0.00 in0.0 mm
02:30 PM 104.7°F40.4°C 58.0°F14.4°C 21% 3.3 mph SSE5.3 kmh SSE 8.0 mph12.9 kmh 29.82 in1009.8 mb 0.00 in0.0 mm 0.00 in0.0 mm 0.00 in0.0 mm
02:40 PM 104.9°F40.5°C 58.0°F14.4°C 21% 3.3 mph SW5.3 kmh SW 11.0 mph17.7 kmh 29.82 in1009.8 mb 0.00 in0.0 mm 0.00 in0.0 mm 0.00 in0.0 mm
02:50 PM 104.5°F40.3°C 59.0°F15.0°C 22% 3.1 mph S5.0 kmh S 8.0 mph12.9 kmh 29.81 in1009.5 mb 0.00 in0.0 mm 0.00 in0.0 mm 0.00 in0.0 mm
03:00 PM 104.9°F40.5°C 56.0°F13.3°C 20% 3.5 mph SW5.6 kmh SW 10.0 mph16.1 kmh 29.80 in1009.1 mb 0.00 in0.0 mm 0.00 in0.0 mm 0.00 in0.0 mm
03:10 PM 105.3°F40.7°C 58.0°F14.4°C 21% 3.1 mph SE5.0 kmh SE 8.0 mph12.9 kmh 29.80 in1009.1 mb 0.00 in0.0 mm 0.00 in0.0 mm 0.00 in0.0 mm
03:20 PM 104.7°F40.4°C 58.0°F14.4°C 21% 3.1 mph SSW5.0 kmh SSW 11.0 mph17.7 kmh 29.80 in1009.1 mb 0.00 in0.0 mm 0.00 in0.0 mm 0.00 in0.0 mm
03:30 PM 105.5°F40.8°C 54.0°F12.2°C 18% 2.5 mph SW4.0 kmh SW 7.0 mph11.3 kmh 29.79 in1008.8 mb 0.00 in0.0 mm 0.00 in0.0 mm 0.00 in0.0 mm
03:40 PM 105.6°F40.9°C 57.0°F13.9°C 20% 4.6 mph SW7.4 kmh SW 10.0 mph16.1 kmh 29.79 in1008.8 mb 0.00 in0.0 mm 0.00 in0.0 mm 0.00 in0.0 mm
03:50 PM 106.4°F41.3°C 56.0°F13.3°C 19% 3.8 mph ESE6.1 kmh ESE 11.0 mph17.7 kmh 29.78 in1008.5 mb 0.00 in0.0 mm 0.00 in0.0 mm 0.00 in0.0 mm
04:00 PM 106.7°F41.5°C 57.0°F13.9°C 19% 3.2 mph SSE5.1 kmh SSE 10.0 mph16.1 kmh 29.77 in1008.1 mb 0.00 in0.0 mm 0.00 in0.0 mm 0.00 in0.0 mm
04:10 PM 106.8°F41.6°C 55.0°F12.8°C 18% 2.3 mph SSW3.7 kmh SSW 10.0 mph16.1 kmh 29.77 in1008.1 mb 0.00 in0.0 mm 0.00 in0.0 mm 0.00 in0.0 mm
04:20 PM 106.5°F41.4°C 55.0°F12.8°C 18% 2.6 mph S4.2 kmh S 8.0 mph12.9 kmh 29.77 in1008.1 mb 0.00 in0.0 mm 0.00 in0.0 mm 0.00 in0.0 mm
04:30 PM 106.4°F41.3°C 53.0°F11.7°C 17% 4.2 mph E6.8 kmh E 10.0 mph16.1 kmh 29.76 in1007.8 mb 0.00 in0.0 mm 0.00 in0.0 mm 0.00 in0.0 mm
04:40 PM 106.8°F41.6°C 52.0°F11.1°C 16% 4.7 mph S7.6 kmh S 11.0 mph17.7 kmh 29.76 in1007.8 mb 0.00 in0.0 mm 0.00 in0.0 mm 0.00 in0.0 mm
04:50 PM 106.3°F41.3°C 51.0°F10.6°C 16% 4.3 mph SW6.9 kmh SW 13.0 mph20.9 kmh 29.75 in1007.5 mb 0.00 in0.0 mm 0.00 in0.0 mm 0.00 in0.0 mm
05:00 PM 107.0°F41.7°C 50.0°F10.0°C 15% 3.6 mph S5.8 kmh S 16.0 mph25.7 kmh 29.75 in1007.5 mb 0.00 in0.0 mm 0.00 in0.0 mm 0.00 in0.0 mm
05:10 PM 107.2°F41.8°C 51.0°F10.6°C 15% 4.6 mph SW7.4 kmh SW 13.0 mph20.9 kmh 29.74 in1007.1 mb 0.00 in0.0 mm 0.00 in0.0 mm 0.00 in0.0 mm
05:20 PM 107.2°F41.8°C 49.0°F9.4°C 14% 3.8 mph SW6.1 kmh SW 10.0 mph16.1 kmh 29.74 in1007.1 mb 0.00 in0.0 mm 0.00 in0.0 mm 0.00 in0.0 mm
05:30 PM 107.0°F41.7°C 47.0°F8.3°C 13% 4.4 mph SSW7.1 kmh SSW 10.0 mph16.1 kmh 29.74 in1007.1 mb 0.00 in0.0 mm 0.00 in0.0 mm 0.00 in0.0 mm
05:40 PM 107.6°F42.0°C 43.0°F6.1°C 11% 2.6 mph SSE4.2 kmh SSE 12.0 mph19.3 kmh 29.74 in1007.1 mb 0.00 in0.0 mm 0.00 in0.0 mm 0.00 in0.0 mm
05:50 PM 107.3°F41.8°C 45.0°F7.2°C 12% 1.6 mph SW2.6 kmh SW 9.0 mph14.5 kmh 29.74 in1007.1 mb 0.00 in0.0 mm 0.00 in0.0 mm 0.00 in0.0 mm
06:00 PM 106.8°F41.6°C 40.0°F4.4°C 10% 2.2 mph SSE3.5 kmh SSE 6.0 mph9.7 kmh 29.74 in1007.1 mb 0.00 in0.0 mm 0.00 in0.0 mm 0.00 in0.0 mm
06:10 PM 106.5°F41.4°C 39.0°F3.9°C 10% 1.1 mph SSW1.8 kmh SSW 5.0 mph8.0 kmh 29.74 in1007.1 mb 0.00 in0.0 mm 0.00 in0.0 mm 0.00 in0.0 mm
06:20 PM 106.4°F41.3°C 39.0°F3.9°C 10% 2.5 mph SW4.0 kmh SW 6.0 mph9.7 kmh 29.74 in1007.1 mb 0.00 in0.0 mm 0.00 in0.0 mm 0.00 in0.0 mm
06:30 PM 106.4°F41.3°C 39.0°F3.9°C 10% 2.0 mph S3.2 kmh S 7.0 mph11.3 kmh 29.74 in1007.1 mb 0.00 in0.0 mm 0.00 in0.0 mm 0.00 in0.0 mm
06:40 PM 106.3°F41.3°C 39.0°F3.9°C 10% 1.8 mph S2.9 kmh S 6.0 mph9.7 kmh 29.74 in1007.1 mb 0.00 in0.0 mm 0.00 in0.0 mm 0.00 in0.0 mm
06:50 PM 105.9°F41.1°C 41.0°F5.0°C 11% 3.3 mph SW5.3 kmh SW 8.0 mph12.9 kmh 29.74 in1007.1 mb 0.00 in0.0 mm 0.00 in0.0 mm 0.00 in0.0 mm
07:00 PM 105.7°F40.9°C 41.0°F5.0°C 11% 1.2 mph SW1.9 kmh SW 5.0 mph8.0 kmh 29.75 in1007.5 mb 0.00 in0.0 mm 0.00 in0.0 mm 0.00 in0.0 mm
07:10 PM 105.2°F40.7°C 45.0°F7.2°C 13% 2.2 mph SSW3.5 kmh SSW 5.0 mph8.0 kmh 29.75 in1007.5 mb 0.00 in0.0 mm 0.00 in0.0 mm 0.00 in0.0 mm
07:20 PM 104.6°F40.3°C 45.0°F7.2°C 13% 1.9 mph SW3.1 kmh SW 5.0 mph8.0 kmh 29.75 in1007.5 mb 0.00 in0.0 mm 0.00 in0.0 mm 0.00 in0.0 mm
07:30 PM 103.2°F39.6°C 54.0°F12.2°C 19% 4.2 mph WSW6.8 kmh WSW 13.0 mph20.9 kmh 29.76 in1007.8 mb 0.00 in0.0 mm 0.00 in0.0 mm 0.00 in0.0 mm
07:40 PM 102.3°F39.1°C 54.0°F12.2°C 20% 5.0 mph S8.0 kmh S 12.0 mph19.3 kmh 29.75 in1007.5 mb 0.00 in0.0 mm 0.00 in0.0 mm 0.00 in0.0 mm
07:50 PM 101.8°F38.8°C 54.0°F12.2°C 20% 5.2 mph SW8.4 kmh SW 14.0 mph22.5 kmh 29.75 in1007.5 mb 0.00 in0.0 mm 0.00 in0.0 mm 0.00 in0.0 mm
08:00 PM 101.6°F38.7°C 54.0°F12.2°C 20% 3.5 mph SW5.6 kmh SW 10.0 mph16.1 kmh 29.75 in1007.5 mb 0.00 in0.0 mm 0.00 in0.0 mm 0.00 in0.0 mm
08:10 PM 101.1°F38.4°C 55.0°F12.8°C 21% 3.3 mph SW5.3 kmh SW 9.0 mph14.5 kmh 29.76 in1007.8 mb 0.00 in0.0 mm 0.00 in0.0 mm 0.00 in0.0 mm
08:20 PM 100.4°F38.0°C 54.0°F12.2°C 21% 2.4 mph S3.9 kmh S 6.0 mph9.7 kmh 29.77 in1008.1 mb 0.00 in0.0 mm 0.00 in0.0 mm 0.00 in0.0 mm
08:30 PM 100.1°F37.8°C 55.0°F12.8°C 22% 1.5 mph SW2.4 kmh SW 7.0 mph11.3 kmh 29.77 in1008.1 mb 0.00 in0.0 mm 0.00 in0.0 mm 0.00 in0.0 mm
08:40 PM 99.6°F37.6°C 55.0°F12.8°C 22% 1.8 mph SSW2.9 kmh SSW 5.0 mph8.0 kmh 29.77 in1008.1 mb 0.00 in0.0 mm 0.00 in0.0 mm 0.00 in0.0 mm
08:50 PM 99.2°F37.3°C 54.0°F12.2°C 22% 2.2 mph SSW3.5 kmh SSW 5.0 mph8.0 kmh 29.77 in1008.1 mb 0.00 in0.0 mm 0.00 in0.0 mm 0.00 in0.0 mm
09:00 PM 98.9°F37.2°C 54.0°F12.2°C 22% 1.5 mph SW2.4 kmh SW 5.0 mph8.0 kmh 29.77 in1008.1 mb 0.00 in0.0 mm 0.00 in0.0 mm 0.00 in0.0 mm
09:10 PM 98.4°F36.9°C 55.0°F12.8°C 23% 0.3 mph S0.5 kmh S 2.0 mph3.2 kmh 29.77 in1008.1 mb 0.00 in0.0 mm 0.00 in0.0 mm 0.00 in0.0 mm
09:20 PM 97.9°F36.6°C 54.0°F12.2°C 23% 0.5 mph SE0.8 kmh SE 3.0 mph4.8 kmh 29.78 in1008.5 mb 0.00 in0.0 mm 0.00 in0.0 mm 0.00 in0.0 mm
09:30 PM 97.4°F36.3°C 54.0°F12.2°C 23% Calm Calm 1.0 mph1.6 kmh 29.78 in1008.5 mb 0.00 in0.0 mm 0.00 in0.0 mm 0.00 in0.0 mm
09:40 PM 97.4°F36.3°C 54.0°F12.2°C 23% 0.6 mph SSW1.0 kmh SSW 2.0 mph3.2 kmh 29.78 in1008.5 mb 0.00 in0.0 mm 0.00 in0.0 mm 0.00 in0.0 mm
09:50 PM 97.1°F36.2°C 54.0°F12.2°C 23% 0.2 mph SW0.3 kmh SW 2.0 mph3.2 kmh 29.78 in1008.5 mb 0.00 in0.0 mm 0.00 in0.0 mm 0.00 in0.0 mm
10:00 PM 96.0°F35.6°C 54.0°F12.2°C 24% Calm Calm 1.0 mph1.6 kmh 29.78 in1008.5 mb 0.00 in0.0 mm 0.00 in0.0 mm 0.00 in0.0 mm
10:10 PM 95.5°F35.3°C 53.0°F11.7°C 24% Calm Calm 1.0 mph1.6 kmh 29.78 in1008.5 mb 0.00 in0.0 mm 0.00 in0.0 mm 0.00 in0.0 mm
10:20 PM 94.7°F34.8°C 53.0°F11.7°C 24% Calm Calm 1.0 mph1.6 kmh 29.78 in1008.5 mb 0.00 in0.0 mm 0.00 in0.0 mm 0.00 in0.0 mm
10:30 PM 95.0°F35.0°C 53.0°F11.7°C 24% 0.4 mph S0.6 kmh S 3.0 mph4.8 kmh 29.78 in1008.5 mb 0.00 in0.0 mm 0.00 in0.0 mm 0.00 in0.0 mm
10:40 PM 96.2°F35.7°C 53.0°F11.7°C 23% 1.3 mph SW2.1 kmh SW 5.0 mph8.0 kmh 29.78 in1008.5 mb 0.00 in0.0 mm 0.00 in0.0 mm 0.00 in0.0 mm
10:50 PM 96.3°F35.7°C 54.0°F12.2°C 24% 1.3 mph SSW2.1 kmh SSW 4.0 mph6.4 kmh 29.78 in1008.5 mb 0.00 in0.0 mm 0.00 in0.0 mm 0.00 in0.0 mm
11:00 PM 96.0°F35.6°C 54.0°F12.2°C 24% 0.5 mph SSW0.8 kmh SSW 3.0 mph4.8 kmh 29.78 in1008.5 mb 0.00 in0.0 mm 0.00 in0.0 mm 0.00 in0.0 mm
11:10 PM 95.3°F35.2°C 54.0°F12.2°C 25% Calm Calm 1.0 mph1.6 kmh 29.78 in1008.5 mb 0.00 in0.0 mm 0.00 in0.0 mm 0.00 in0.0 mm
11:20 PM 95.0°F35.0°C 55.0°F12.8°C 26% 0.1 mph SE0.2 kmh SE 1.0 mph1.6 kmh 29.78 in1008.5 mb 0.00 in0.0 mm 0.00 in0.0 mm 0.00 in0.0 mm
11:30 PM 94.8°F34.9°C 55.0°F12.8°C 26% 0.9 mph SE1.4 kmh SE 2.0 mph3.2 kmh 29.78 in1008.5 mb 0.00 in0.0 mm 0.00 in0.0 mm 0.00 in0.0 mm
11:40 PM 94.6°F34.8°C 55.0°F12.8°C 26% 0.6 mph SE1.0 kmh SE 2.0 mph3.2 kmh 29.78 in1008.5 mb 0.00 in0.0 mm 0.00 in0.0 mm 0.00 in0.0 mm
11:50 PM 94.5°F34.7°C 55.0°F12.8°C 26% 0.2 mph SE0.3 kmh SE 2.0 mph3.2 kmh 29.78 in1008.5 mb 0.00 in0.0 mm 0.00 in0.0 mm 0.00 in0.0 mm